Time;durP1;ratioP1;P1;durP2;ratioP2;P2;SDS_P1;SDS_P2;PMS_P1;PMS_P2;Temp;Humidity;BMP_temperature;BMP_pressure;BME280_temperature;BME280_humidity;BME280_pressure;Samples;Min_cycle;Max_cycle;Signal;HPM_P1;HPM_P2
2023/06/14 00:02:14;;;;;;;7.70;4.70;;;;;;;;;;4982172;28;20296;-72
2023/06/14 00:04:41;;;;;;;8.82;5.03;;;;;;;;;;4979235;28;20031;-72
2023/06/14 00:07:08;;;;;;;9.70;5.07;;;;;;;;;;4983782;28;20065;-72
2023/06/14 00:09:34;;;;;;;9.02;4.35;;;;;;;;;;4985390;28;20125;-72
2023/06/14 00:11:59;;;;;;;12.27;4.80;;;;;;;;;;4992243;28;20094;-72
2023/06/14 00:14:24;;;;;;;9.27;5.27;;;;;;;;;;4983778;28;20029;-72
2023/06/14 00:16:49;;;;;;;11.52;5.18;;;;;;;;;;4987222;28;20073;-72
2023/06/14 00:19:15;;;;;;;12.53;5.07;;;;;;;;;;4986148;28;20045;-72
2023/06/14 00:21:41;;;;;;;11.10;5.05;;;;;;;;;;4975918;28;20010;-72
2023/06/14 00:24:07;;;;;;;8.07;4.53;;;;;;;;;;4982015;28;20385;-72
2023/06/14 00:26:32;;;;;;;6.65;4.30;;;;;;;;;;4979486;28;20089;-72
2023/06/14 00:28:57;;;;;;;8.23;4.60;;;;;;;;;;4983716;28;20054;-72
2023/06/14 00:31:23;;;;;;;9.13;5.40;;;;;;;;;;4968701;28;20027;-72
2023/06/14 00:33:48;;;;;;;11.15;4.63;;;;;;;;;;4988343;28;20022;-72
2023/06/14 00:36:13;;;;;;;6.80;4.47;;;;;;;;;;4990797;28;20022;-72
2023/06/14 00:38:38;;;;;;;14.53;4.60;;;;;;;;;;4988902;28;20320;-72
2023/06/14 00:41:04;;;;;;;9.02;5.07;;;;;;;;;;4991325;28;20277;-72
2023/06/14 00:43:29;;;;;;;8.23;4.20;;;;;;;;;;4987958;28;20037;-72
2023/06/14 00:45:54;;;;;;;12.00;4.88;;;;;;;;;;4977254;28;20015;-72
2023/06/14 00:48:19;;;;;;;10.60;5.25;;;;;;;;;;4987531;28;20056;-72
2023/06/14 00:50:48;;;;;;;8.98;5.03;;;;;;;;;;4981040;28;20029;-72
2023/06/14 00:53:15;;;;;;;8.20;4.18;;;;;;;;;;4985449;28;20030;-72
2023/06/14 00:55:40;;;;;;;11.93;5.30;;;;;;;;;;4991693;28;20469;-72
2023/06/14 00:58:06;;;;;;;7.67;4.23;;;;;;;;;;4999055;28;20026;-72
2023/06/14 01:00:31;;;;;;;10.65;4.65;;;;;;;;;;4984733;28;20313;-72
2023/06/14 01:02:56;;;;;;;12.07;5.25;;;;;;;;;;4975815;28;20113;-72
2023/06/14 01:05:22;;;;;;;8.48;4.03;;;;;;;;;;4989135;28;20121;-72
2023/06/14 01:07:59;;;;;;;9.30;5.25;;;;;;;;;;4999213;28;20010;-72
2023/06/14 01:10:24;;;;;;;8.20;4.65;;;;;;;;;;4992487;28;20400;-72
2023/06/14 01:12:55;;;;;;;9.75;4.55;;;;;;;;;;4998297;28;20069;-72
2023/06/14 01:15:21;;;;;;;7.88;4.63;;;;;;;;;;4981543;28;20038;-72
2023/06/14 01:17:48;;;;;;;6.50;3.80;;;;;;;;;;4997573;28;20086;-72
2023/06/14 01:20:17;;;;;;;11.52;4.90;;;;;;;;;;4993573;28;20026;-72
2023/06/14 01:22:52;;;;;;;7.33;4.50;;;;;;;;;;4984844;28;20018;-72
2023/06/14 01:25:20;;;;;;;9.48;4.50;;;;;;;;;;4989347;28;20065;-72
2023/06/14 01:27:46;;;;;;;6.97;4.15;;;;;;;;;;4988238;28;20022;-72
2023/06/14 01:30:12;;;;;;;7.13;4.45;;;;;;;;;;4987900;28;20022;-72
2023/06/14 01:32:37;;;;;;;9.52;4.68;;;;;;;;;;4980165;28;20053;-72
2023/06/14 01:35:03;;;;;;;7.90;4.57;;;;;;;;;;4990854;28;20057;-72
2023/06/14 01:37:28;;;;;;;8.68;4.70;;;;;;;;;;4990186;28;20372;-73
2023/06/14 01:39:54;;;;;;;5.38;3.75;;;;;;;;;;4980845;28;20034;-73
2023/06/14 01:42:20;;;;;;;6.88;4.10;;;;;;;;;;4987861;28;20027;-73
2023/06/14 01:44:46;;;;;;;7.53;4.43;;;;;;;;;;4985833;28;20010;-72
2023/06/14 01:47:11;;;;;;;6.25;4.13;;;;;;;;;;4990098;28;20037;-72
2023/06/14 01:49:38;;;;;;;8.40;4.38;;;;;;;;;;4978297;28;20037;-73
2023/06/14 01:52:03;;;;;;;8.00;4.80;;;;;;;;;;4987171;28;20092;-73
2023/06/14 01:54:29;;;;;;;11.35;4.00;;;;;;;;;;4987070;28;20513;-73
2023/06/14 01:56:54;;;;;;;6.53;4.40;;;;;;;;;;4990086;28;20034;-72
2023/06/14 01:59:19;;;;;;;7.77;3.80;;;;;;;;;;4981906;28;20382;-72
2023/06/14 02:01:46;;;;;;;8.07;3.95;;;;;;;;;;4991867;28;20023;-72
2023/06/14 02:04:11;;;;;;;7.80;4.32;;;;;;;;;;4992574;28;20062;-73
2023/06/14 02:06:36;;;;;;;7.22;4.40;;;;;;;;;;4991255;28;20106;-73
2023/06/14 02:09:02;;;;;;;10.83;4.50;;;;;;;;;;4990732;28;20049;-72
2023/06/14 02:11:28;;;;;;;6.97;3.88;;;;;;;;;;4991555;28;20278;-73
2023/06/14 02:13:53;;;;;;;7.18;3.78;;;;;;;;;;5001636;28;20026;-72
2023/06/14 02:16:18;;;;;;;7.07;3.87;;;;;;;;;;4986160;28;20027;-73
2023/06/14 02:18:43;;;;;;;5.43;3.60;;;;;;;;;;4993519;28;20292;-73
2023/06/14 02:21:08;;;;;;;6.05;3.30;;;;;;;;;;4999426;28;20032;-72
2023/06/14 02:23:34;;;;;;;9.82;3.40;;;;;;;;;;4989793;28;20117;-72
2023/06/14 02:25:59;;;;;;;10.43;4.95;;;;;;;;;;4981762;28;20050;-73
2023/06/14 02:28:24;;;;;;;10.17;4.13;;;;;;;;;;4996905;28;20042;-73
2023/06/14 02:30:49;;;;;;;5.80;3.70;;;;;;;;;;4992218;28;20014;-73
2023/06/14 02:33:14;;;;;;;10.43;4.53;;;;;;;;;;4984141;28;20081;-73
2023/06/14 02:35:40;;;;;;;6.40;3.83;;;;;;;;;;4964356;28;20027;-72
2023/06/14 02:38:05;;;;;;;7.87;4.30;;;;;;;;;;4986457;28;20302;-73
2023/06/14 02:40:30;;;;;;;13.50;5.30;;;;;;;;;;4997453;28;20030;-73
2023/06/14 02:42:55;;;;;;;6.90;3.93;;;;;;;;;;4988381;28;20281;-73
2023/06/14 02:45:20;;;;;;;13.32;4.50;;;;;;;;;;4990624;28;20273;-72
2023/06/14 02:47:46;;;;;;;7.80;3.85;;;;;;;;;;4995651;28;20038;-72
2023/06/14 02:50:11;;;;;;;7.38;4.13;;;;;;;;;;4989774;28;20027;-72
2023/06/14 02:52:36;;;;;;;6.10;3.70;;;;;;;;;;4995269;28;20488;-72
2023/06/14 02:55:02;;;;;;;9.57;4.28;;;;;;;;;;4984989;28;20135;-72
2023/06/14 02:57:27;;;;;;;8.95;4.28;;;;;;;;;;4983554;28;20026;-73
2023/06/14 02:59:52;;;;;;;11.47;4.57;;;;;;;;;;4995530;28;20103;-73
2023/06/14 03:02:17;;;;;;;11.27;4.32;;;;;;;;;;4987234;28;20473;-73
2023/06/14 03:04:44;;;;;;;11.25;4.63;;;;;;;;;;4987676;28;20030;-73
2023/06/14 03:07:10;;;;;;;8.88;4.72;;;;;;;;;;4998420;28;20019;-73
2023/06/14 03:09:36;;;;;;;7.80;4.03;;;;;;;;;;4994341;28;20019;-73
2023/06/14 03:12:02;;;;;;;14.98;4.55;;;;;;;;;;4995029;28;20371;-73
2023/06/14 03:14:29;;;;;;;5.35;3.72;;;;;;;;;;4998435;28;20181;-73
2023/06/14 03:16:56;;;;;;;7.07;4.35;;;;;;;;;;4995400;28;20309;-73
2023/06/14 03:19:21;;;;;;;9.38;4.65;;;;;;;;;;4995417;28;20015;-73
2023/06/14 03:21:47;;;;;;;8.87;4.43;;;;;;;;;;5004202;28;20037;-73
2023/06/14 03:24:12;;;;;;;6.53;3.83;;;;;;;;;;4994783;28;20407;-73
2023/06/14 03:26:37;;;;;;;6.22;3.97;;;;;;;;;;4999375;28;20359;-73
2023/06/14 03:29:03;;;;;;;12.00;4.43;;;;;;;;;;4995393;28;20033;-73
2023/06/14 03:31:32;;;;;;;6.87;4.07;;;;;;;;;;4988354;28;20064;-73
2023/06/14 03:33:57;;;;;;;8.57;4.43;;;;;;;;;;4986590;28;20780;-72
2023/06/14 03:36:22;;;;;;;8.35;4.72;;;;;;;;;;4990909;28;20041;-73
2023/06/14 03:38:48;;;;;;;8.93;4.17;;;;;;;;;;4982843;28;20335;-73
2023/06/14 03:41:13;;;;;;;7.13;4.10;;;;;;;;;;4979895;28;20038;-72
2023/06/14 03:43:38;;;;;;;7.97;3.97;;;;;;;;;;4987215;28;20308;-72
2023/06/14 03:46:03;;;;;;;7.70;4.23;;;;;;;;;;4989943;28;20104;-73
2023/06/14 03:48:28;;;;;;;9.47;4.60;;;;;;;;;;4984267;28;20015;-72
2023/06/14 03:50:54;;;;;;;7.63;4.53;;;;;;;;;;4992791;28;20504;-72
2023/06/14 03:53:23;;;;;;;14.05;4.38;;;;;;;;;;4991652;28;20025;-72
2023/06/14 03:55:48;;;;;;;12.05;4.32;;;;;;;;;;4983726;28;20057;-72
2023/06/14 03:58:14;;;;;;;6.63;4.20;;;;;;;;;;4989976;28;20441;-73
2023/06/14 04:00:40;;;;;;;8.18;3.92;;;;;;;;;;4986119;28;20038;-73
2023/06/14 04:03:05;;;;;;;6.40;4.13;;;;;;;;;;4992732;28;20384;-73
2023/06/14 04:05:31;;;;;;;8.27;4.43;;;;;;;;;;4997764;28;20287;-73
2023/06/14 04:07:56;;;;;;;11.43;4.65;;;;;;;;;;4989444;28;20465;-72
2023/06/14 04:10:22;;;;;;;7.93;4.30;;;;;;;;;;5000240;28;20461;-73
2023/06/14 04:12:47;;;;;;;11.48;4.78;;;;;;;;;;4992721;28;20028;-73
2023/06/14 04:15:13;;;;;;;7.20;4.63;;;;;;;;;;5000119;28;20025;-73
2023/06/14 04:17:38;;;;;;;10.50;4.38;;;;;;;;;;4988363;28;20785;-72
2023/06/14 04:20:05;;;;;;;9.27;4.20;;;;;;;;;;5000157;28;20076;-73
2023/06/14 04:22:31;;;;;;;6.93;3.80;;;;;;;;;;4989756;28;20026;-72
2023/06/14 04:24:56;;;;;;;17.75;4.50;;;;;;;;;;4986925;28;20423;-72
2023/06/14 04:27:25;;;;;;;9.63;4.50;;;;;;;;;;4983294;28;20030;-73
2023/06/14 04:29:53;;;;;;;17.60;4.35;;;;;;;;;;4988550;28;20014;-73
2023/06/14 04:32:18;;;;;;;7.97;4.28;;;;;;;;;;4987941;28;20022;-73
2023/06/14 04:34:43;;;;;;;14.10;5.03;;;;;;;;;;4991465;28;20398;-72
2023/06/14 04:37:09;;;;;;;18.23;4.53;;;;;;;;;;4994484;28;20075;-73
2023/06/14 04:39:35;;;;;;;8.02;4.40;;;;;;;;;;4984661;28;20050;-72
2023/06/14 04:42:00;;;;;;;12.07;4.00;;;;;;;;;;4978099;28;20034;-72
2023/06/14 04:44:29;;;;;;;9.00;4.50;;;;;;;;;;4985359;28;20022;-72
2023/06/14 04:46:56;;;;;;;11.95;4.63;;;;;;;;;;4984745;28;20025;-72
2023/06/14 04:49:23;;;;;;;11.85;4.72;;;;;;;;;;4983002;28;20584;-72
2023/06/14 04:51:50;;;;;;;6.15;4.03;;;;;;;;;;4991038;28;20458;-72
2023/06/14 04:54:16;;;;;;;8.70;4.80;;;;;;;;;;4997022;28;20057;-73
2023/06/14 04:56:46;;;;;;;10.68;4.43;;;;;;;;;;4988803;28;20100;-72
2023/06/14 04:59:11;;;;;;;8.30;4.60;;;;;;;;;;4986799;28;20034;-72
2023/06/14 05:01:37;;;;;;;13.20;4.22;;;;;;;;;;4980698;28;20504;-73
2023/06/14 05:04:02;;;;;;;12.63;4.60;;;;;;;;;;4979715;28;20416;-73
2023/06/14 05:06:28;;;;;;;7.88;3.95;;;;;;;;;;4976975;28;20027;-72
2023/06/14 05:08:53;;;;;;;7.65;4.13;;;;;;;;;;4980987;28;20022;-72
2023/06/14 05:11:19;;;;;;;12.63;4.10;;;;;;;;;;4966571;28;20034;-73
2023/06/14 05:13:44;;;;;;;5.93;3.78;;;;;;;;;;4984821;28;20105;-73
2023/06/14 05:16:11;;;;;;;10.15;4.28;;;;;;;;;;4989003;28;20018;-73
2023/06/14 05:18:37;;;;;;;9.20;5.13;;;;;;;;;;4988133;28;20393;-72
2023/06/14 05:21:03;;;;;;;9.77;3.90;;;;;;;;;;4988913;28;20515;-72
2023/06/14 05:23:28;;;;;;;9.50;4.15;;;;;;;;;;4980734;28;20030;-72
2023/06/14 05:25:54;;;;;;;6.45;3.53;;;;;;;;;;4983572;28;20374;-73
2023/06/14 05:28:20;;;;;;;7.70;3.70;;;;;;;;;;4988668;28;20018;-72
2023/06/14 05:30:46;;;;;;;9.73;3.22;;;;;;;;;;4988844;28;20296;-73
2023/06/14 05:33:11;;;;;;;7.07;3.88;;;;;;;;;;4976119;28;20019;-72
2023/06/14 05:35:37;;;;;;;10.40;3.57;;;;;;;;;;4983743;28;20019;-72
2023/06/14 05:38:02;;;;;;;5.93;3.55;;;;;;;;;;4983828;28;20756;-72
2023/06/14 05:40:28;;;;;;;6.47;3.20;;;;;;;;;;4985898;28;20057;-72
2023/06/14 05:42:53;;;;;;;14.05;4.18;;;;;;;;;;4985233;28;20053;-72
2023/06/14 05:45:18;;;;;;;5.33;3.57;;;;;;;;;;4986007;28;20037;-72
2023/06/14 05:47:43;;;;;;;6.73;3.23;;;;;;;;;;4983243;28;20486;-72
2023/06/14 05:50:09;;;;;;;5.40;3.10;;;;;;;;;;4987415;28;20258;-72
2023/06/14 05:52:34;;;;;;;8.20;3.20;;;;;;;;;;4988723;28;20108;-72
2023/06/14 05:55:00;;;;;;;6.38;4.03;;;;;;;;;;4979762;28;20023;-72
2023/06/14 05:57:25;;;;;;;9.88;3.75;;;;;;;;;;4983900;28;20037;-72
2023/06/14 05:59:51;;;;;;;9.50;3.07;;;;;;;;;;4967690;28;20060;-72
2023/06/14 06:02:16;;;;;;;9.30;3.70;;;;;;;;;;4980558;28;20045;-72
2023/06/14 06:04:41;;;;;;;7.47;3.60;;;;;;;;;;4982412;28;20465;-72
2023/06/14 06:07:07;;;;;;;12.07;3.83;;;;;;;;;;4981303;28;20278;-72
2023/06/14 06:09:32;;;;;;;7.32;3.13;;;;;;;;;;4982638;28;20356;-72
2023/06/14 06:11:57;;;;;;;6.00;3.17;;;;;;;;;;4984074;28;20018;-72
2023/06/14 06:14:22;;;;;;;8.70;3.47;;;;;;;;;;4986142;28;20401;-72
2023/06/14 06:16:47;;;;;;;6.93;3.20;;;;;;;;;;4981312;28;20026;-72
2023/06/14 06:19:13;;;;;;;14.55;3.38;;;;;;;;;;4990067;28;20276;-72
2023/06/14 06:21:38;;;;;;;6.60;3.07;;;;;;;;;;4986953;28;20029;-72
2023/06/14 06:24:05;;;;;;;6.07;3.23;;;;;;;;;;4986928;28;20899;-72
2023/06/14 06:26:30;;;;;;;9.30;2.95;;;;;;;;;;4990359;28;20340;-72
2023/06/14 06:28:57;;;;;;;10.20;3.15;;;;;;;;;;4991329;28;20157;-72
2023/06/14 06:31:22;;;;;;;5.68;2.97;;;;;;;;;;4987447;28;20383;-72
2023/06/14 06:33:47;;;;;;;12.00;3.90;;;;;;;;;;4987354;28;20027;-71
2023/06/14 06:36:12;;;;;;;4.47;2.73;;;;;;;;;;4983278;28;20037;-72
2023/06/14 06:38:37;;;;;;;11.45;2.75;;;;;;;;;;4987017;28;20026;-72
2023/06/14 06:41:03;;;;;;;6.43;2.83;;;;;;;;;;4983516;28;20041;-72
2023/06/14 06:43:28;;;;;;;6.05;2.83;;;;;;;;;;4983906;28;20286;-72
2023/06/14 06:45:53;;;;;;;9.27;2.73;;;;;;;;;;4989355;28;20023;-72
2023/06/14 06:48:18;;;;;;;10.52;2.63;;;;;;;;;;4985608;28;20109;-71
2023/06/14 06:50:43;;;;;;;5.93;2.70;;;;;;;;;;4985665;28;20074;-72
2023/06/14 06:53:08;;;;;;;5.90;2.97;;;;;;;;;;4991602;28;20073;-72
2023/06/14 06:55:34;;;;;;;5.18;2.50;;;;;;;;;;4994848;28;20026;-72
2023/06/14 06:58:00;;;;;;;9.30;2.53;;;;;;;;;;4980623;28;20023;-72
2023/06/14 07:00:25;;;;;;;7.20;2.42;;;;;;;;;;4983320;28;20324;-72
2023/06/14 07:02:50;;;;;;;5.45;2.17;;;;;;;;;;4988754;28;20505;-72
2023/06/14 07:05:16;;;;;;;7.00;2.40;;;;;;;;;;4992336;28;20030;-71
2023/06/14 07:07:41;;;;;;;5.05;2.33;;;;;;;;;;4995459;28;20046;-72
2023/06/14 07:10:07;;;;;;;5.63;2.03;;;;;;;;;;4991295;28;20038;-71
2023/06/14 07:12:33;;;;;;;4.00;2.17;;;;;;;;;;4988685;28;20026;-72
2023/06/14 07:14:59;;;;;;;5.53;2.22;;;;;;;;;;4989382;28;20109;-72
2023/06/14 07:17:24;;;;;;;7.32;2.30;;;;;;;;;;4989308;28;20109;-72
2023/06/14 07:19:50;;;;;;;5.75;2.65;;;;;;;;;;4984344;28;20497;-72
2023/06/14 07:22:16;;;;;;;5.22;2.20;;;;;;;;;;4991909;28;20026;-72
2023/06/14 07:24:41;;;;;;;4.60;2.37;;;;;;;;;;4990850;28;20026;-72
2023/06/14 07:27:07;;;;;;;8.02;2.20;;;;;;;;;;4993215;28;20448;-72
2023/06/14 07:29:32;;;;;;;5.40;2.20;;;;;;;;;;4990363;28;20098;-72
2023/06/14 07:31:57;;;;;;;3.10;1.98;;;;;;;;;;4996018;28;20015;-72
2023/06/14 07:34:23;;;;;;;3.10;1.77;;;;;;;;;;4989876;28;20503;-72
2023/06/14 07:36:48;;;;;;;6.17;1.57;;;;;;;;;;4985498;28;20084;-72
2023/06/14 07:39:13;;;;;;;2.97;1.63;;;;;;;;;;4994146;28;20083;-72
2023/06/14 07:41:38;;;;;;;1.88;1.23;;;;;;;;;;4991330;28;20332;-72
2023/06/14 07:44:03;;;;;;;3.17;1.77;;;;;;;;;;4993940;28;20469;-72
2023/06/14 07:46:29;;;;;;;3.60;1.37;;;;;;;;;;4995817;28;20109;-72
2023/06/14 07:48:55;;;;;;;2.80;1.60;;;;;;;;;;4995331;28;20025;-72
2023/06/14 07:51:21;;;;;;;2.85;1.35;;;;;;;;;;4992098;28;20022;-73
2023/06/14 07:53:47;;;;;;;3.35;1.95;;;;;;;;;;4990550;28;20064;-73
2023/06/14 07:56:12;;;;;;;2.25;1.60;;;;;;;;;;4990364;28;20025;-72
2023/06/14 07:58:37;;;;;;;3.63;1.20;;;;;;;;;;4988940;28;20080;-73
2023/06/14 08:01:06;;;;;;;4.77;1.80;;;;;;;;;;4989475;28;20045;-73
2023/06/14 08:03:31;;;;;;;3.70;1.45;;;;;;;;;;4990325;28;20033;-72
2023/06/14 08:05:56;;;;;;;3.75;1.40;;;;;;;;;;4982621;28;20019;-72
2023/06/14 08:08:21;;;;;;;2.53;1.30;;;;;;;;;;4989261;28;20237;-72
2023/06/14 08:10:47;;;;;;;5.53;1.52;;;;;;;;;;4982766;28;20364;-73
2023/06/14 08:13:13;;;;;;;2.10;1.23;;;;;;;;;;4991192;28;20519;-72
2023/06/14 08:15:38;;;;;;;8.00;1.85;;;;;;;;;;4991054;28;20276;-72
2023/06/14 08:18:03;;;;;;;5.93;1.63;;;;;;;;;;4990468;28;20026;-72
2023/06/14 08:20:30;;;;;;;2.47;1.70;;;;;;;;;;4986592;28;20046;-72
2023/06/14 08:22:56;;;;;;;2.75;1.60;;;;;;;;;;4989215;28;20026;-72
2023/06/14 08:25:21;;;;;;;2.95;1.50;;;;;;;;;;4980499;28;20066;-72
2023/06/14 08:27:47;;;;;;;3.35;1.60;;;;;;;;;;4989236;28;20069;-71
2023/06/14 08:30:12;;;;;;;2.47;1.20;;;;;;;;;;4985903;28;20038;-71
2023/06/14 08:32:37;;;;;;;4.68;1.65;;;;;;;;;;4982696;28;20318;-72
2023/06/14 08:35:03;;;;;;;3.97;1.63;;;;;;;;;;4985688;28;20380;-72
2023/06/14 08:37:29;;;;;;;3.72;1.30;;;;;;;;;;4987281;28;20018;-72
2023/06/14 08:39:56;;;;;;;1.67;1.25;;;;;;;;;;4985932;28;20030;-72
2023/06/14 08:42:21;;;;;;;1.83;1.20;;;;;;;;;;4968066;28;20019;-72
2023/06/14 08:44:49;;;;;;;5.35;1.20;;;;;;;;;;4987592;28;20064;-72
2023/06/14 08:47:17;;;;;;;2.53;1.60;;;;;;;;;;4986459;28;20026;-72
2023/06/14 08:49:44;;;;;;;1.98;1.30;;;;;;;;;;4987172;28;20021;-72
2023/06/14 08:52:12;;;;;;;5.03;1.65;;;;;;;;;;4969207;28;20109;-72
2023/06/14 08:54:43;;;;;;;4.45;2.33;;;;;;;;;;4967749;28;20030;-72
2023/06/14 08:57:12;;;;;;;2.25;1.27;;;;;;;;;;4988082;28;20025;-72
2023/06/14 08:59:43;;;;;;;4.00;1.33;;;;;;;;;;4990919;28;20247;-72
2023/06/14 09:02:12;;;;;;;2.20;1.08;;;;;;;;;;4992001;28;20057;-72
2023/06/14 09:04:39;;;;;;;3.38;1.60;;;;;;;;;;4991127;28;20026;-72
2023/06/14 09:07:06;;;;;;;6.88;1.63;;;;;;;;;;4988960;28;20025;-72
2023/06/14 09:09:32;;;;;;;2.70;1.40;;;;;;;;;;4982295;28;20065;-72
2023/06/14 09:11:57;;;;;;;3.40;1.50;;;;;;;;;;4988509;28;20022;-72
2023/06/14 09:14:25;;;;;;;2.88;1.50;;;;;;;;;;4992488;28;20046;-71
2023/06/14 09:16:54;;;;;;;8.48;1.50;;;;;;;;;;4990807;28;20533;-72
2023/06/14 09:19:25;;;;;;;7.05;1.40;;;;;;;;;;4986248;28;20040;-72
2023/06/14 09:21:52;;;;;;;7.65;1.27;;;;;;;;;;4987717;28;20027;-72
2023/06/14 09:24:17;;;;;;;2.40;1.52;;;;;;;;;;4989737;28;20117;-72
2023/06/14 09:26:43;;;;;;;3.10;1.52;;;;;;;;;;4993692;28;20467;-72
2023/06/14 09:29:09;;;;;;;3.53;1.40;;;;;;;;;;4985509;28;20019;-72
2023/06/14 09:31:35;;;;;;;2.50;1.80;;;;;;;;;;4985703;28;20384;-72
2023/06/14 09:34:01;;;;;;;2.65;1.20;;;;;;;;;;4990560;28;20018;-71
2023/06/14 09:36:27;;;;;;;3.53;1.70;;;;;;;;;;4983088;28;20061;-72
2023/06/14 09:38:56;;;;;;;4.30;1.67;;;;;;;;;;4988653;28;20066;-72
2023/06/14 09:41:38;;;;;;;7.05;1.27;;;;;;;;;;4984491;28;20022;-72
2023/06/14 09:44:04;;;;;;;2.17;1.48;;;;;;;;;;4987013;28;20064;-72
2023/06/14 09:46:30;;;;;;;4.22;1.60;;;;;;;;;;4988107;28;20029;-72
2023/06/14 09:48:55;;;;;;;5.07;1.35;;;;;;;;;;4988459;28;20019;-72
2023/06/14 09:51:22;;;;;;;4.13;0.95;;;;;;;;;;4987861;28;20018;-72
2023/06/14 09:53:48;;;;;;;1.27;0.93;;;;;;;;;;4987797;28;20110;-72
2023/06/14 09:56:14;;;;;;;3.75;1.88;;;;;;;;;;4985775;28;20024;-72
2023/06/14 09:58:40;;;;;;;3.58;1.48;;;;;;;;;;4987512;28;20026;-72
2023/06/14 10:01:07;;;;;;;6.68;1.73;;;;;;;;;;4988847;28;20044;-72
2023/06/14 10:03:33;;;;;;;7.55;1.55;;;;;;;;;;4981755;28;20026;-72
2023/06/14 10:06:02;;;;;;;3.45;1.60;;;;;;;;;;4984766;28;20018;-71
2023/06/14 10:08:27;;;;;;;3.95;1.58;;;;;;;;;;4981029;28;20023;-72
2023/06/14 10:10:53;;;;;;;3.10;1.55;;;;;;;;;;4988993;28;20026;-71
2023/06/14 10:13:18;;;;;;;8.63;2.15;;;;;;;;;;4989739;28;20133;-72
2023/06/14 10:15:47;;;;;;;2.40;1.40;;;;;;;;;;4989281;28;20157;-71
2023/06/14 10:18:30;;;;;;;3.78;1.30;;;;;;;;;;4985705;28;20049;-72
2023/06/14 10:21:22;;;;;;;2.40;1.65;;;;;;;;;;4987482;28;20634;-71
2023/06/14 10:23:48;;;;;;;2.88;1.50;;;;;;;;;;4965431;28;20046;-71
2023/06/14 10:26:23;;;;;;;3.45;1.90;;;;;;;;;;4992085;28;20033;-71
2023/06/14 10:29:01;;;;;;;6.50;2.95;;;;;;;;;;4994179;28;20404;-72
2023/06/14 10:31:42;;;;;;;4.22;1.58;;;;;;;;;;4990213;28;20345;-72
2023/06/14 10:34:08;;;;;;;3.22;1.83;;;;;;;;;;4989712;28;20109;-72
2023/06/14 10:36:36;;;;;;;5.32;1.48;;;;;;;;;;4993992;28;20085;-72
2023/06/14 10:39:06;;;;;;;2.30;1.13;;;;;;;;;;4986621;28;20073;-72
2023/06/14 10:41:31;;;;;;;4.85;1.33;;;;;;;;;;4985376;28;20390;-72
2023/06/14 10:44:12;;;;;;;7.22;1.40;;;;;;;;;;4992189;28;20058;-72
2023/06/14 10:46:37;;;;;;;2.55;1.33;;;;;;;;;;4988739;28;20022;-72
2023/06/14 10:49:03;;;;;;;2.50;1.30;;;;;;;;;;4988130;28;20045;-72
2023/06/14 10:51:29;;;;;;;3.47;1.20;;;;;;;;;;4991747;28;20370;-72
2023/06/14 10:53:56;;;;;;;2.70;1.40;;;;;;;;;;4992349;28;20060;-72
2023/06/14 10:56:25;;;;;;;3.08;1.52;;;;;;;;;;4988956;28;20473;-72
2023/06/14 10:58:50;;;;;;;3.45;1.38;;;;;;;;;;4981660;28;20478;-72
2023/06/14 11:01:16;;;;;;;3.27;1.87;;;;;;;;;;4984492;28;20044;-72
2023/06/14 11:03:41;;;;;;;3.03;1.60;;;;;;;;;;4975320;28;20023;-72
2023/06/14 11:06:12;;;;;;;5.63;1.58;;;;;;;;;;4978539;28;20363;-72
2023/06/14 11:08:46;;;;;;;2.92;1.67;;;;;;;;;;4985054;28;20101;-72
2023/06/14 11:11:12;;;;;;;1.85;1.42;;;;;;;;;;4981463;28;20023;-72
2023/06/14 11:13:38;;;;;;;5.10;1.80;;;;;;;;;;5004187;28;20632;-72
2023/06/14 11:16:09;;;;;;;2.40;1.33;;;;;;;;;;4975354;28;20508;-72
2023/06/14 11:18:36;;;;;;;3.60;1.23;;;;;;;;;;5002479;28;20029;-72
2023/06/14 11:21:01;;;;;;;8.30;1.52;;;;;;;;;;5002609;28;20022;-72
2023/06/14 11:23:26;;;;;;;3.17;1.37;;;;;;;;;;4995061;28;20018;-72
2023/06/14 11:25:52;;;;;;;1.70;1.20;;;;;;;;;;4994562;28;20621;-72
2023/06/14 11:28:19;;;;;;;14.13;1.67;;;;;;;;;;4998153;28;20317;-72
2023/06/14 11:30:44;;;;;;;5.88;1.60;;;;;;;;;;4992387;28;20400;-72
2023/06/14 11:33:11;;;;;;;2.07;1.27;;;;;;;;;;4993337;28;20449;-72
2023/06/14 11:35:36;;;;;;;3.60;1.40;;;;;;;;;;4990062;28;20025;-72
2023/06/14 11:38:01;;;;;;;2.83;1.40;;;;;;;;;;4999665;28;20396;-72
2023/06/14 11:40:27;;;;;;;8.65;1.73;;;;;;;;;;4991287;28;20027;-72
2023/06/14 11:42:59;;;;;;;4.07;1.58;;;;;;;;;;5005302;28;20069;-72
2023/06/14 11:45:25;;;;;;;3.03;1.20;;;;;;;;;;4989941;28;21340;-72
2023/06/14 11:47:50;;;;;;;3.80;1.37;;;;;;;;;;4990758;28;20199;-72
2023/06/14 11:50:15;;;;;;;6.72;1.30;;;;;;;;;;5006045;28;20316;-72
2023/06/14 11:52:41;;;;;;;5.90;1.35;;;;;;;;;;4973527;28;20051;-72
2023/06/14 11:55:06;;;;;;;3.88;2.00;;;;;;;;;;4980826;28;20401;-72
2023/06/14 11:57:35;;;;;;;8.25;1.08;;;;;;;;;;4993318;28;20098;-72
2023/06/14 12:00:06;;;;;;;2.05;1.10;;;;;;;;;;5001156;28;20026;-72
2023/06/14 12:02:31;;;;;;;2.75;1.40;;;;;;;;;;5000289;28;20057;-72
2023/06/14 12:05:03;;;;;;;6.57;1.38;;;;;;;;;;4998724;28;20362;-72
2023/06/14 12:07:31;;;;;;;2.05;1.10;;;;;;;;;;5008396;28;20019;-72
2023/06/14 12:09:56;;;;;;;2.08;1.02;;;;;;;;;;4993299;28;20017;-72
2023/06/14 12:12:22;;;;;;;3.83;1.07;;;;;;;;;;5004823;28;20022;-72
2023/06/14 12:14:47;;;;;;;3.30;1.35;;;;;;;;;;4974617;28;20045;-72
2023/06/14 12:17:12;;;;;;;4.93;1.07;;;;;;;;;;4991957;28;20081;-72
2023/06/14 12:19:48;;;;;;;1.93;1.00;;;;;;;;;;4991354;28;20285;-72
2023/06/14 12:22:13;;;;;;;1.75;0.90;;;;;;;;;;4990842;28;20369;-72
2023/06/14 12:24:39;;;;;;;2.03;0.80;;;;;;;;;;4996823;28;20090;-72
2023/06/14 12:27:04;;;;;;;2.20;0.90;;;;;;;;;;4997322;28;20149;-72
2023/06/14 12:29:30;;;;;;;2.88;1.30;;;;;;;;;;4992899;28;20098;-71
2023/06/14 12:31:56;;;;;;;4.55;1.25;;;;;;;;;;4992227;28;20097;-72
2023/06/14 12:34:22;;;;;;;1.42;1.05;;;;;;;;;;4988640;28;20066;-72
2023/06/14 12:36:48;;;;;;;2.72;1.23;;;;;;;;;;5006767;28;20026;-72
2023/06/14 12:39:13;;;;;;;2.15;0.63;;;;;;;;;;4993849;28;20096;-72
2023/06/14 12:41:41;;;;;;;3.75;0.93;;;;;;;;;;4991747;28;20018;-72
2023/06/14 12:44:06;;;;;;;3.53;1.10;;;;;;;;;;4990095;28;20030;-71
2023/06/14 12:46:32;;;;;;;7.07;1.13;;;;;;;;;;4996720;28;20014;-72
2023/06/14 12:48:57;;;;;;;2.28;1.40;;;;;;;;;;5003045;28;20014;-72
2023/06/14 12:51:23;;;;;;;6.17;1.50;;;;;;;;;;4996206;28;20034;-72
2023/06/14 12:53:48;;;;;;;2.53;0.90;;;;;;;;;;4989382;28;20026;-72
2023/06/14 12:56:14;;;;;;;2.28;0.60;;;;;;;;;;4988420;28;20026;-72
2023/06/14 12:58:39;;;;;;;1.77;1.00;;;;;;;;;;5006809;28;20021;-72
2023/06/14 13:01:04;;;;;;;2.20;0.90;;;;;;;;;;4990182;28;20027;-72
2023/06/14 13:03:29;;;;;;;1.77;1.20;;;;;;;;;;4993427;28;20106;-72
2023/06/14 13:05:55;;;;;;;1.33;0.93;;;;;;;;;;4993195;28;20046;-71
2023/06/14 13:08:20;;;;;;;4.90;0.90;;;;;;;;;;4980497;28;20019;-72
2023/06/14 13:10:45;;;;;;;4.40;1.20;;;;;;;;;;4999638;28;20388;-72
2023/06/14 13:13:12;;;;;;;2.85;0.88;;;;;;;;;;5001685;28;20793;-72
2023/06/14 13:15:38;;;;;;;4.47;1.00;;;;;;;;;;4995887;28;20030;-72
2023/06/14 13:18:03;;;;;;;4.20;1.00;;;;;;;;;;4990958;28;20349;-72
2023/06/14 13:20:28;;;;;;;2.65;0.80;;;;;;;;;;4986393;28;20018;-73
2023/06/14 13:22:53;;;;;;;2.70;1.30;;;;;;;;;;4987668;28;20037;-72
2023/06/14 13:25:19;;;;;;;3.33;1.05;;;;;;;;;;4990235;28;20018;-72
2023/06/14 13:27:44;;;;;;;1.48;1.08;;;;;;;;;;4998138;28;20056;-72
2023/06/14 13:30:09;;;;;;;1.85;1.15;;;;;;;;;;4983864;28;20539;-72
2023/06/14 13:32:34;;;;;;;1.35;0.93;;;;;;;;;;4989743;28;20018;-72
2023/06/14 13:35:00;;;;;;;2.85;1.23;;;;;;;;;;5001043;28;20453;-72
2023/06/14 13:37:25;;;;;;;2.38;1.00;;;;;;;;;;4994764;28;20026;-72
2023/06/14 13:39:50;;;;;;;1.73;0.83;;;;;;;;;;4986643;28;20076;-72
2023/06/14 13:42:15;;;;;;;2.57;1.10;;;;;;;;;;4985702;28;20010;-72
2023/06/14 13:44:40;;;;;;;4.07;1.47;;;;;;;;;;4990334;28;20134;-72
2023/06/14 13:47:06;;;;;;;4.90;1.40;;;;;;;;;;4981430;28;20014;-72
2023/06/14 13:49:31;;;;;;;3.90;1.20;;;;;;;;;;4987155;28;20496;-72
2023/06/14 13:51:56;;;;;;;2.85;1.10;;;;;;;;;;4986265;28;20252;-72
2023/06/14 13:54:21;;;;;;;1.77;1.33;;;;;;;;;;4978482;28;20375;-72
2023/06/14 13:56:47;;;;;;;4.90;1.30;;;;;;;;;;4982191;28;20030;-72
2023/06/14 13:59:12;;;;;;;2.70;1.25;;;;;;;;;;4985752;28;20026;-72
2023/06/14 14:01:38;;;;;;;3.95;1.40;;;;;;;;;;4986951;28;20034;-72
2023/06/14 14:04:04;;;;;;;6.93;1.50;;;;;;;;;;4999173;28;20167;-72
2023/06/14 14:06:29;;;;;;;2.85;1.55;;;;;;;;;;4983516;28;20019;-72
2023/06/14 14:08:55;;;;;;;2.35;1.45;;;;;;;;;;4990475;28;20022;-72
2023/06/14 14:11:20;;;;;;;2.67;1.40;;;;;;;;;;4984791;28;20030;-72
2023/06/14 14:13:46;;;;;;;1.20;0.93;;;;;;;;;;4989561;28;20293;-72
2023/06/14 14:16:11;;;;;;;6.95;1.35;;;;;;;;;;4979253;28;20339;-72
2023/06/14 14:18:36;;;;;;;2.40;1.40;;;;;;;;;;4982069;28;20033;-72
2023/06/14 14:21:02;;;;;;;2.63;1.92;;;;;;;;;;4990030;28;20438;-72
2023/06/14 14:23:27;;;;;;;3.45;1.38;;;;;;;;;;4985525;28;20030;-72
2023/06/14 14:25:52;;;;;;;3.10;1.73;;;;;;;;;;4982357;28;20110;-72
2023/06/14 14:28:20;;;;;;;3.00;0.80;;;;;;;;;;4980700;28;20492;-72
2023/06/14 14:30:47;;;;;;;4.70;1.10;;;;;;;;;;4983804;28;20264;-72
2023/06/14 14:33:15;;;;;;;6.88;1.80;;;;;;;;;;4984847;28;20084;-72
2023/06/14 14:35:41;;;;;;;2.63;1.50;;;;;;;;;;4980207;28;20034;-72